Omskiy-141 — UGZK — position and weather

sailwx.info

Track history (hours):
 
Tides and Currents Weather Stations Pressure Air Temp Water Temp Dewpoint Dewpoint Depression Visibility Wind Speed Wind Dir Waves Ship Positions

Omskiy-141

Last reported at 2016-May-20 20:33 UTC. Time now 2016-May-24 23:35 UTC.
Position N 59°36' E 021°10'.

Length 108 m; draft 3.5 m.

Type: Cargo ship. MMSI: 273310600.

Date/timePositionNaut miles runAvg speedWind from/ knotsBaromVisibWave heightAir tempDewpointWater temp
2016-May-20 20:33N 59°36' E 021°10'8 8.0
2016-May-20 19:33N 59°36' E 021°25'8 8.2
2016-May-20 18:33N 59°36' E 021°42'8 8.2
2016-May-20 17:33N 59°36' E 021°58'8 8.1
2016-May-20 16:33N 59°36' E 022°14'12 8.2
2016-May-20 15:03N 59°36' E 022°39'5 8.1
2016-May-20 14:27N 59°36' E 022°48'8 8.1
2016-May-20 13:27N 59°38' E 023°04'7 8.2
2016-May-20 12:33N 59°40' E 023°18'8 8.2
2016-May-20 11:33N 59°41' E 023°33'8 8.2
2016-May-20 10:33N 59°43' E 023°49'9 8.3
2016-May-20 09:27N 59°46' E 024°07'42 8.2
2016-May-20 04:17N 59°54' E 025°29'6 8.2
2016-May-20 03:33N 59°55' E 025°41'18 8.3
2016-May-20 01:22N 59°59' E 026°16'6 8.1
2016-May-20 00:33N 60°01' E 026°29'8 8.0
2016-May-19 23:33N 60°01' E 026°45'8 8.2
2016-May-19 22:31N 59°60' E 027°02'8 8.0
2016-May-19 21:33N 60°04' E 027°15'8 8.3
2016-May-19 20:33N 60°08' E 027°30'9 8.3
2016-May-19 19:31N 60°12' E 027°45'8 8.2
2016-May-19 18:33N 60°10' E 028°00'8 8.5
2016-May-19 17:33N 60°08' E 028°17'8 8.4
2016-May-19 16:33N 60°03' E 028°31'9 8.6
2016-May-19 15:31N 60°03' E 028°48'24 8.2
2016-May-19 12:33N 60°00' E 029°37'8 7.9
2016-May-19 11:33N 59°57' E 029°51'7 7.5
2016-May-19 10:33N 59°57' E 030°06'5 4.9
2016-May-19 09:32N 59°55' E 030°15'0 0.0
2016-May-19 08:32N 59°55' E 030°15'0 0.0
2016-May-19 07:32N 59°55' E 030°15'0 0.0
2016-May-19 06:32N 59°55' E 030°15'0 0.0
2016-May-19 05:32N 59°55' E 030°15'0 0.0
2016-May-19 04:32N 59°55' E 030°15'0 0.0
2016-May-19 03:32N 59°55' E 030°15'0 0.0
2016-May-19 02:32N 59°55' E 030°15'0 0.0
2016-May-19 01:32N 59°55' E 030°15'4 4.1
2016-May-19 00:33N 59°57' E 030°22'7 6.7
2016-May-18 23:33N 59°52' E 030°30'0 0.1
2016-May-18 22:32N 59°51' E 030°30'0 0.0
2016-May-18 21:29N 59°51' E 030°30'0 0.0
2016-May-18 20:32N 59°51' E 030°30'0 0.0
2016-May-18 19:32N 59°51' E 030°30'0 0.0
2016-May-18 18:32N 59°51' E 030°30'0 0.0
2016-May-18 17:32N 59°51' E 030°30'0 0.0
2016-May-18 16:30N 59°51' E 030°30'0 0.0
2016-May-18 15:30N 59°51' E 030°30'0 0.0
2016-May-18 14:33N 59°51' E 030°30'0 0.0
2016-May-18 13:33N 59°51' E 030°30'0 0.0
2016-May-18 12:33N 59°51' E 030°30'0 0.0
2016-May-18 11:33N 59°51' E 030°30'0 0.0
2016-May-18 10:33N 59°51' E 030°30'0 0.0
2016-May-18 09:33N 59°51' E 030°30'0 0.0
2016-May-18 08:30N 59°51' E 030°30'0 0.0
2016-May-18 07:33N 59°51' E 030°30'0 0.0
2016-May-18 06:33N 59°51' E 030°30'0 0.0
2016-May-18 05:30N 59°51' E 030°30'0 0.0
2016-May-18 04:33N 59°51' E 030°30'0 0.0
2016-May-18 03:33N 59°51' E 030°30'1 0.9
2016-May-18 02:33N 59°51' E 030°31'9 8.7
2016-May-18 01:32N 59°46' E 030°45'  
2016-May-13 03:33N 59°47' E 030°42'5 5.1
2016-May-13 02:33N 59°50' E 030°34'5 4.6
2016-May-13 01:33N 59°53' E 030°27'4 3.5
2016-May-13 00:32N 59°56' E 030°24'1 0.8
2016-May-12 23:33N 59°57' E 030°24'4 4.4
2016-May-12 22:33N 59°55' E 030°16'2 1.8
2016-May-12 21:32N 59°54' E 030°13'0 0.0
2016-May-12 20:29N 59°54' E 030°13'0 0.0
2016-May-12 19:32N 59°54' E 030°13'0 0.0
2016-May-12 18:32N 59°54' E 030°13'0 0.0
2016-May-12 17:32N 59°54' E 030°13'0 0.0
2016-May-12 16:32N 59°54' E 030°13'0 0.0
2016-May-12 15:32N 59°54' E 030°13'0 0.0
2016-May-12 14:32N 59°54' E 030°13'0 0.0
2016-May-12 13:32N 59°54' E 030°13'0 0.0
2016-May-12 12:32N 59°54' E 030°13'0 0.0
2016-May-12 11:32N 59°54' E 030°13'0 0.0
2016-May-12 10:32N 59°54' E 030°13'0 0.0
2016-May-12 09:32N 59°54' E 030°13'0 0.0
2016-May-12 08:32N 59°54' E 030°13'0 0.0
2016-May-12 07:32N 59°54' E 030°13'0 0.0
2016-May-12 06:32N 59°54' E 030°13'0 0.0
2016-May-12 05:32N 59°54' E 030°13'0 0.0
2016-May-12 04:32N 59°54' E 030°13'0 0.0
2016-May-12 03:32N 59°54' E 030°13'0 0.0
2016-May-12 02:32N 59°54' E 030°13'0 0.0
2016-May-12 01:32N 59°54' E 030°13'0 0.0
2016-May-12 00:32N 59°54' E 030°13'0 0.0
2016-May-11 23:32N 59°54' E 030°13'0 0.0
2016-May-11 22:32N 59°54' E 030°13'0 0.0
2016-May-11 21:32N 59°54' E 030°13'0 0.0
2016-May-11 20:32N 59°54' E 030°13'0 0.0
2016-May-11 19:32N 59°54' E 030°13'0 0.0
2016-May-11 18:32N 59°54' E 030°13'0 0.0
2016-May-11 17:32N 59°54' E 030°13'0 0.0
2016-May-11 16:29N 59°54' E 030°13'0 0.0
2016-May-11 15:32N 59°54' E 030°13'0 0.0
2016-May-11 14:32N 59°54' E 030°13'0 0.0
2016-May-11 13:32N 59°54' E 030°13'0 0.0
2016-May-11 12:32N 59°54' E 030°13'0 0.0
2016-May-11 11:32N 59°54' E 030°13'0 0.0
2016-May-11 10:32N 59°54' E 030°13'0 0.0
2016-May-11 09:32N 59°54' E 030°13'0 0.0
2016-May-11 08:29N 59°54' E 030°13'0 0.0
2016-May-11 07:32N 59°54' E 030°13'0 0.0
2016-May-11 06:32N 59°54' E 030°13'0 0.0
2016-May-11 05:32N 59°54' E 030°13'0 0.0
2016-May-11 04:32N 59°54' E 030°13'0 0.0
2016-May-11 03:32N 59°54' E 030°13'0 0.0
2016-May-11 02:29N 59°54' E 030°13'0 0.0
2016-May-11 01:29N 59°54' E 030°13'0 0.0
2016-May-11 00:32N 59°54' E 030°13'0 0.0
2016-May-10 23:32N 59°54' E 030°13'0 0.0
2016-May-10 22:32N 59°54' E 030°13'0 0.0
2016-May-10 21:32N 59°54' E 030°13'  
Track history (hours):
 
Tides and Currents Weather Stations Pressure Air Temp Water Temp Dewpoint Dewpoint Depression Visibility Wind Speed Wind Dir Waves Ship Positions

Omskiy-141

Last reported at 2016-May-20 20:33 UTC. Time now 2016-May-24 23:35 UTC.
Position N 59°36' E 021°10'.

Length 108 m; draft 3.5 m.

Type: Cargo ship. MMSI: 273310600.

Date/timePositionNaut miles runAvg speedWind from/ knotsBaromVisibWave heightAir tempDewpointWater temp
2016-May-20 20:33N 59°36' E 021°10'8 8.0
2016-May-20 19:33N 59°36' E 021°25'8 8.2
2016-May-20 18:33N 59°36' E 021°42'8 8.2
2016-May-20 17:33N 59°36' E 021°58'8 8.1
2016-May-20 16:33N 59°36' E 022°14'12 8.2
2016-May-20 15:03N 59°36' E 022°39'5 8.1
2016-May-20 14:27N 59°36' E 022°48'8 8.1
2016-May-20 13:27N 59°38' E 023°04'7 8.2
2016-May-20 12:33N 59°40' E 023°18'8 8.2
2016-May-20 11:33N 59°41' E 023°33'8 8.2
2016-May-20 10:33N 59°43' E 023°49'9 8.3
2016-May-20 09:27N 59°46' E 024°07'42 8.2
2016-May-20 04:17N 59°54' E 025°29'6 8.2
2016-May-20 03:33N 59°55' E 025°41'18 8.3
2016-May-20 01:22N 59°59' E 026°16'6 8.1
2016-May-20 00:33N 60°01' E 026°29'8 8.0
2016-May-19 23:33N 60°01' E 026°45'8 8.2
2016-May-19 22:31N 59°60' E 027°02'8 8.0
2016-May-19 21:33N 60°04' E 027°15'8 8.3
2016-May-19 20:33N 60°08' E 027°30'9 8.3
2016-May-19 19:31N 60°12' E 027°45'8 8.2
2016-May-19 18:33N 60°10' E 028°00'8 8.5
2016-May-19 17:33N 60°08' E 028°17'8 8.4
2016-May-19 16:33N 60°03' E 028°31'9 8.6
2016-May-19 15:31N 60°03' E 028°48'24 8.2
2016-May-19 12:33N 60°00' E 029°37'8 7.9
2016-May-19 11:33N 59°57' E 029°51'7 7.5
2016-May-19 10:33N 59°57' E 030°06'5 4.9
2016-May-19 09:32N 59°55' E 030°15'0 0.0
2016-May-19 08:32N 59°55' E 030°15'0 0.0
2016-May-19 07:32N 59°55' E 030°15'0 0.0
2016-May-19 06:32N 59°55' E 030°15'0 0.0
2016-May-19 05:32N 59°55' E 030°15'0 0.0
2016-May-19 04:32N 59°55' E 030°15'0 0.0
2016-May-19 03:32N 59°55' E 030°15'0 0.0
2016-May-19 02:32N 59°55' E 030°15'0 0.0
2016-May-19 01:32N 59°55' E 030°15'4 4.1
2016-May-19 00:33N 59°57' E 030°22'7 6.7
2016-May-18 23:33N 59°52' E 030°30'0 0.1
2016-May-18 22:32N 59°51' E 030°30'0 0.0
2016-May-18 21:29N 59°51' E 030°30'0 0.0
2016-May-18 20:32N 59°51' E 030°30'0 0.0
2016-May-18 19:32N 59°51' E 030°30'0 0.0
2016-May-18 18:32N 59°51' E 030°30'0 0.0
2016-May-18 17:32N 59°51' E 030°30'0 0.0
2016-May-18 16:30N 59°51' E 030°30'0 0.0
2016-May-18 15:30N 59°51' E 030°30'0 0.0
2016-May-18 14:33N 59°51' E 030°30'0 0.0
2016-May-18 13:33N 59°51' E 030°30'0 0.0
2016-May-18 12:33N 59°51' E 030°30'0 0.0
2016-May-18 11:33N 59°51' E 030°30'0 0.0
2016-May-18 10:33N 59°51' E 030°30'0 0.0
2016-May-18 09:33N 59°51' E 030°30'0 0.0
2016-May-18 08:30N 59°51' E 030°30'0 0.0
2016-May-18 07:33N 59°51' E 030°30'0 0.0
2016-May-18 06:33N 59°51' E 030°30'0 0.0
2016-May-18 05:30N 59°51' E 030°30'0 0.0
2016-May-18 04:33N 59°51' E 030°30'0 0.0
2016-May-18 03:33N 59°51' E 030°30'1 0.9
2016-May-18 02:33N 59°51' E 030°31'9 8.7
2016-May-18 01:32N 59°46' E 030°45'  
2016-May-13 03:33N 59°47' E 030°42'5 5.1
2016-May-13 02:33N 59°50' E 030°34'5 4.6
2016-May-13 01:33N 59°53' E 030°27'4 3.5
2016-May-13 00:32N 59°56' E 030°24'1 0.8
2016-May-12 23:33N 59°57' E 030°24'4 4.4
2016-May-12 22:33N 59°55' E 030°16'2 1.8
2016-May-12 21:32N 59°54' E 030°13'0 0.0
2016-May-12 20:29N 59°54' E 030°13'0 0.0
2016-May-12 19:32N 59°54' E 030°13'0 0.0
2016-May-12 18:32N 59°54' E 030°13'0 0.0
2016-May-12 17:32N 59°54' E 030°13'0 0.0
2016-May-12 16:32N 59°54' E 030°13'0 0.0
2016-May-12 15:32N 59°54' E 030°13'0 0.0
2016-May-12 14:32N 59°54' E 030°13'0 0.0
2016-May-12 13:32N 59°54' E 030°13'0 0.0
2016-May-12 12:32N 59°54' E 030°13'0 0.0
2016-May-12 11:32N 59°54' E 030°13'0 0.0
2016-May-12 10:32N 59°54' E 030°13'0 0.0
2016-May-12 09:32N 59°54' E 030°13'0 0.0
2016-May-12 08:32N 59°54' E 030°13'0 0.0
2016-May-12 07:32N 59°54' E 030°13'0 0.0
2016-May-12 06:32N 59°54' E 030°13'0 0.0
2016-May-12 05:32N 59°54' E 030°13'0 0.0
2016-May-12 04:32N 59°54' E 030°13'0 0.0
2016-May-12 03:32N 59°54' E 030°13'0 0.0
2016-May-12 02:32N 59°54' E 030°13'0 0.0
2016-May-12 01:32N 59°54' E 030°13'0 0.0
2016-May-12 00:32N 59°54' E 030°13'0 0.0
2016-May-11 23:32N 59°54' E 030°13'0 0.0
2016-May-11 22:32N 59°54' E 030°13'0 0.0
2016-May-11 21:32N 59°54' E 030°13'0 0.0
2016-May-11 20:32N 59°54' E 030°13'0 0.0
2016-May-11 19:32N 59°54' E 030°13'0 0.0
2016-May-11 18:32N 59°54' E 030°13'0 0.0
2016-May-11 17:32N 59°54' E 030°13'0 0.0
2016-May-11 16:29N 59°54' E 030°13'0 0.0
2016-May-11 15:32N 59°54' E 030°13'0 0.0
2016-May-11 14:32N 59°54' E 030°13'0 0.0
2016-May-11 13:32N 59°54' E 030°13'0 0.0
2016-May-11 12:32N 59°54' E 030°13'0 0.0
2016-May-11 11:32N 59°54' E 030°13'0 0.0
2016-May-11 10:32N 59°54' E 030°13'0 0.0
2016-May-11 09:32N 59°54' E 030°13'0 0.0
2016-May-11 08:29N 59°54' E 030°13'0 0.0
2016-May-11 07:32N 59°54' E 030°13'0 0.0
2016-May-11 06:32N 59°54' E 030°13'0 0.0
2016-May-11 05:32N 59°54' E 030°13'0 0.0
2016-May-11 04:32N 59°54' E 030°13'0 0.0
2016-May-11 03:32N 59°54' E 030°13'0 0.0
2016-May-11 02:29N 59°54' E 030°13'0 0.0
2016-May-11 01:29N 59°54' E 030°13'0 0.0
2016-May-11 00:32N 59°54' E 030°13'0 0.0
2016-May-10 23:32N 59°54' E 030°13'0 0.0
2016-May-10 22:32N 59°54' E 030°13'0 0.0
2016-May-10 21:32N 59°54' E 030°13'  

Dump ship's entire track history